Terminal Aerodrome Forecast
Issued by NWS

Home | Current Version | Previous Version | Text Only | Print | Product List | Glossary On
Versions: 1 2 3 4 5 6 7 8 9 10 11 12 13 14 15 16 17
000
FTUS44 KSJT 182300
TAFJCT
TAF
KJCT 182320Z 1900/1924 12007KT P6SM FEW070 BKN250
     FM191000 13004KT P6SM OVC020
     FM191700 13010G18KT P6SM SCT030 OVC050=

USA.gov is the U.S. government's official web portal to all federal, state and local government web resources and services.